sensor_id;sensor_type;location;lat;lon;timestamp;temperature;humidity
70550;DHT22;58101;48.658;2.328;2022-10-16T00:01:22;15.50;99.90
70550;DHT22;58101;48.658;2.328;2022-10-16T00:03:48;15.60;99.90
70550;DHT22;58101;48.658;2.328;2022-10-16T00:06:16;15.60;99.90
70550;DHT22;58101;48.658;2.328;2022-10-16T00:08:42;15.60;99.90
70550;DHT22;58101;48.658;2.328;2022-10-16T00:11:11;15.60;99.90
70550;DHT22;58101;48.658;2.328;2022-10-16T00:13:38;15.50;99.90
70550;DHT22;58101;48.658;2.328;2022-10-16T00:16:05;15.60;99.90
70550;DHT22;58101;48.658;2.328;2022-10-16T00:18:31;15.50;99.90
70550;DHT22;58101;48.658;2.328;2022-10-16T00:21:05;15.50;99.90
70550;DHT22;58101;48.658;2.328;2022-10-16T00:23:31;15.50;99.90
70550;DHT22;58101;48.658;2.328;2022-10-16T00:25:59;15.50;99.90
70550;DHT22;58101;48.658;2.328;2022-10-16T00:28:26;15.50;99.90
70550;DHT22;58101;48.658;2.328;2022-10-16T00:30:52;15.50;99.90
70550;DHT22;58101;48.658;2.328;2022-10-16T00:33:18;15.60;99.90
70550;DHT22;58101;48.658;2.328;2022-10-16T00:35:43;15.40;99.90
70550;DHT22;58101;48.658;2.328;2022-10-16T00:38:09;15.50;99.90
70550;DHT22;58101;48.658;2.328;2022-10-16T00:40:35;15.40;99.90
70550;DHT22;58101;48.658;2.328;2022-10-16T00:43:01;15.40;99.90
70550;DHT22;58101;48.658;2.328;2022-10-16T00:45:26;15.40;99.90
70550;DHT22;58101;48.658;2.328;2022-10-16T00:47:54;15.40;99.90
70550;DHT22;58101;48.658;2.328;2022-10-16T00:52:55;15.30;99.90
70550;DHT22;58101;48.658;2.328;2022-10-16T00:55:21;15.30;99.90
70550;DHT22;58101;48.658;2.328;2022-10-16T00:57:48;15.30;99.90
70550;DHT22;58101;48.658;2.328;2022-10-16T01:00:17;15.30;99.90
70550;DHT22;58101;48.658;2.328;2022-10-16T01:02:43;15.30;99.90
70550;DHT22;58101;48.658;2.328;2022-10-16T01:05:09;15.30;99.90
70550;DHT22;58101;48.658;2.328;2022-10-16T01:12:59;15.20;99.90
70550;DHT22;58101;48.658;2.328;2022-10-16T01:18:39;15.20;99.90
70550;DHT22;58101;48.658;2.328;2022-10-16T01:21:20;15.20;99.90
70550;DHT22;58101;48.658;2.328;2022-10-16T01:29:16;15.20;99.90
70550;DHT22;58101;48.658;2.328;2022-10-16T01:31:48;15.10;99.90
70550;DHT22;58101;48.658;2.328;2022-10-16T01:34:20;15.10;99.90
70550;DHT22;58101;48.658;2.328;2022-10-16T01:36:53;15.10;99.90
70550;DHT22;58101;48.658;2.328;2022-10-16T01:39:24;15.10;99.90
70550;DHT22;58101;48.658;2.328;2022-10-16T01:42:12;15.10;99.90
70550;DHT22;58101;48.658;2.328;2022-10-16T01:44:38;15.10;99.90
70550;DHT22;58101;48.658;2.328;2022-10-16T01:47:06;15.10;99.90
70550;DHT22;58101;48.658;2.328;2022-10-16T01:49:35;15.10;99.90
70550;DHT22;58101;48.658;2.328;2022-10-16T01:52:05;15.10;99.90
70550;DHT22;58101;48.658;2.328;2022-10-16T01:54:33;15.10;99.90
70550;DHT22;58101;48.658;2.328;2022-10-16T01:57:01;15.10;99.90
70550;DHT22;58101;48.658;2.328;2022-10-16T01:59:30;15.00;99.90
70550;DHT22;58101;48.658;2.328;2022-10-16T02:01:59;15.00;99.90
70550;DHT22;58101;48.658;2.328;2022-10-16T02:04:36;15.00;99.90
70550;DHT22;58101;48.658;2.328;2022-10-16T02:07:03;15.00;99.90
70550;DHT22;58101;48.658;2.328;2022-10-16T02:09:31;15.10;99.90
70550;DHT22;58101;48.658;2.328;2022-10-16T02:11:59;15.00;99.90
70550;DHT22;58101;48.658;2.328;2022-10-16T02:14:29;15.00;99.90
70550;DHT22;58101;48.658;2.328;2022-10-16T02:16:54;15.00;99.90
70550;DHT22;58101;48.658;2.328;2022-10-16T02:19:21;15.00;99.90
70550;DHT22;58101;48.658;2.328;2022-10-16T02:21:51;15.00;99.90
70550;DHT22;58101;48.658;2.328;2022-10-16T02:29:56;15.00;99.90
70550;DHT22;58101;48.658;2.328;2022-10-16T02:32:29;15.00;99.90
70550;DHT22;58101;48.658;2.328;2022-10-16T02:34:56;15.00;99.90
70550;DHT22;58101;48.658;2.328;2022-10-16T02:37:23;14.80;99.90
70550;DHT22;58101;48.658;2.328;2022-10-16T02:39:50;15.00;99.90
70550;DHT22;58101;48.658;2.328;2022-10-16T02:42:17;15.00;99.90
70550;DHT22;58101;48.658;2.328;2022-10-16T02:44:44;15.00;99.90
70550;DHT22;58101;48.658;2.328;2022-10-16T02:47:09;15.00;99.90
70550;DHT22;58101;48.658;2.328;2022-10-16T02:49:35;15.00;99.90
70550;DHT22;58101;48.658;2.328;2022-10-16T02:52:00;14.80;99.90
70550;DHT22;58101;48.658;2.328;2022-10-16T02:54:26;14.90;99.90
70550;DHT22;58101;48.658;2.328;2022-10-16T02:56:52;15.00;99.90
70550;DHT22;58101;48.658;2.328;2022-10-16T02:59:17;14.80;99.90
70550;DHT22;58101;48.658;2.328;2022-10-16T03:01:43;14.80;99.90
70550;DHT22;58101;48.658;2.328;2022-10-16T03:04:08;14.80;99.90
70550;DHT22;58101;48.658;2.328;2022-10-16T03:06:34;14.80;99.90
70550;DHT22;58101;48.658;2.328;2022-10-16T03:09:00;14.80;99.90
70550;DHT22;58101;48.658;2.328;2022-10-16T03:11:26;14.90;99.90
70550;DHT22;58101;48.658;2.328;2022-10-16T03:13:51;14.90;99.90
70550;DHT22;58101;48.658;2.328;2022-10-16T03:16:17;14.80;99.90
70550;DHT22;58101;48.658;2.328;2022-10-16T03:18:43;14.80;99.90
70550;DHT22;58101;48.658;2.328;2022-10-16T03:21:08;14.80;99.90
70550;DHT22;58101;48.658;2.328;2022-10-16T03:23:34;14.70;99.90
70550;DHT22;58101;48.658;2.328;2022-10-16T03:25:59;14.80;99.90
70550;DHT22;58101;48.658;2.328;2022-10-16T03:28:25;14.80;99.90
70550;DHT22;58101;48.658;2.328;2022-10-16T03:30:51;14.80;99.90
70550;DHT22;58101;48.658;2.328;2022-10-16T03:33:16;14.80;99.90
70550;DHT22;58101;48.658;2.328;2022-10-16T03:35:42;14.80;99.90
70550;DHT22;58101;48.658;2.328;2022-10-16T03:38:08;14.80;99.90
70550;DHT22;58101;48.658;2.328;2022-10-16T03:40:33;14.80;99.90
70550;DHT22;58101;48.658;2.328;2022-10-16T03:42:59;14.80;99.90
70550;DHT22;58101;48.658;2.328;2022-10-16T03:45:25;14.80;99.90
70550;DHT22;58101;48.658;2.328;2022-10-16T03:47:51;14.80;99.90
70550;DHT22;58101;48.658;2.328;2022-10-16T03:50:17;14.70;99.90
70550;DHT22;58101;48.658;2.328;2022-10-16T03:52:42;14.70;99.90
70550;DHT22;58101;48.658;2.328;2022-10-16T03:55:08;14.70;99.90
70550;DHT22;58101;48.658;2.328;2022-10-16T03:57:34;14.80;99.90
70550;DHT22;58101;48.658;2.328;2022-10-16T03:59:59;14.70;99.90
70550;DHT22;58101;48.658;2.328;2022-10-16T04:02:25;14.80;99.90
70550;DHT22;58101;48.658;2.328;2022-10-16T04:04:50;14.80;99.90
70550;DHT22;58101;48.658;2.328;2022-10-16T04:07:16;14.80;99.90
70550;DHT22;58101;48.658;2.328;2022-10-16T04:09:42;14.80;99.90
70550;DHT22;58101;48.658;2.328;2022-10-16T04:12:08;14.80;99.90
70550;DHT22;58101;48.658;2.328;2022-10-16T04:14:33;14.80;99.90
70550;DHT22;58101;48.658;2.328;2022-10-16T04:16:59;14.80;99.90
70550;DHT22;58101;48.658;2.328;2022-10-16T04:19:25;14.80;99.90
70550;DHT22;58101;48.658;2.328;2022-10-16T04:21:51;14.90;99.90
70550;DHT22;58101;48.658;2.328;2022-10-16T04:24:17;14.90;99.90
70550;DHT22;58101;48.658;2.328;2022-10-16T04:26:42;14.70;99.90
70550;DHT22;58101;48.658;2.328;2022-10-16T04:29:08;14.80;99.90
70550;DHT22;58101;48.658;2.328;2022-10-16T04:31:33;14.80;99.90
70550;DHT22;58101;48.658;2.328;2022-10-16T04:33:59;14.80;99.90
70550;DHT22;58101;48.658;2.328;2022-10-16T04:36:25;14.80;99.90
70550;DHT22;58101;48.658;2.328;2022-10-16T04:38:50;14.80;99.90
70550;DHT22;58101;48.658;2.328;2022-10-16T04:41:16;14.80;99.90
70550;DHT22;58101;48.658;2.328;2022-10-16T04:43:41;14.80;99.90
70550;DHT22;58101;48.658;2.328;2022-10-16T04:46:07;14.70;99.90
70550;DHT22;58101;48.658;2.328;2022-10-16T04:48:33;14.80;99.90
70550;DHT22;58101;48.658;2.328;2022-10-16T04:50:59;14.80;99.90
70550;DHT22;58101;48.658;2.328;2022-10-16T04:53:24;14.80;99.90
70550;DHT22;58101;48.658;2.328;2022-10-16T04:55:50;14.80;99.90
70550;DHT22;58101;48.658;2.328;2022-10-16T04:58:16;14.70;99.90
70550;DHT22;58101;48.658;2.328;2022-10-16T05:00:42;14.70;99.90
70550;DHT22;58101;48.658;2.328;2022-10-16T05:03:08;14.70;99.90
70550;DHT22;58101;48.658;2.328;2022-10-16T05:05:35;14.80;99.90
70550;DHT22;58101;48.658;2.328;2022-10-16T05:08:01;14.80;99.90
70550;DHT22;58101;48.658;2.328;2022-10-16T05:10:27;14.80;99.90
70550;DHT22;58101;48.658;2.328;2022-10-16T05:12:53;14.80;99.90
70550;DHT22;58101;48.658;2.328;2022-10-16T05:15:19;14.80;99.90
70550;DHT22;58101;48.658;2.328;2022-10-16T05:17:44;14.90;99.90
70550;DHT22;58101;48.658;2.328;2022-10-16T05:20:11;14.90;99.90
70550;DHT22;58101;48.658;2.328;2022-10-16T05:22:37;14.80;99.90
70550;DHT22;58101;48.658;2.328;2022-10-16T05:25:02;14.90;99.90
70550;DHT22;58101;48.658;2.328;2022-10-16T05:27:28;14.90;99.90
70550;DHT22;58101;48.658;2.328;2022-10-16T05:29:54;14.90;99.90
70550;DHT22;58101;48.658;2.328;2022-10-16T05:32:19;14.90;99.90
70550;DHT22;58101;48.658;2.328;2022-10-16T05:34:45;14.90;99.90
70550;DHT22;58101;48.658;2.328;2022-10-16T05:37:11;14.90;99.90
70550;DHT22;58101;48.658;2.328;2022-10-16T05:39:38;14.90;99.90
70550;DHT22;58101;48.658;2.328;2022-10-16T05:42:04;14.90;99.90
70550;DHT22;58101;48.658;2.328;2022-10-16T05:44:30;14.90;99.90
70550;DHT22;58101;48.658;2.328;2022-10-16T05:46:56;14.90;99.90
70550;DHT22;58101;48.658;2.328;2022-10-16T05:49:21;14.90;99.90
70550;DHT22;58101;48.658;2.328;2022-10-16T05:51:47;14.90;99.90
70550;DHT22;58101;48.658;2.328;2022-10-16T05:54:13;14.70;99.90
70550;DHT22;58101;48.658;2.328;2022-10-16T05:56:38;14.80;99.90
70550;DHT22;58101;48.658;2.328;2022-10-16T05:59:04;14.80;99.90
70550;DHT22;58101;48.658;2.328;2022-10-16T06:01:30;15.00;99.90
70550;DHT22;58101;48.658;2.328;2022-10-16T06:03:56;14.80;99.90
70550;DHT22;58101;48.658;2.328;2022-10-16T06:06:24;14.80;99.90
70550;DHT22;58101;48.658;2.328;2022-10-16T06:08:52;14.80;99.90
70550;DHT22;58101;48.658;2.328;2022-10-16T06:11:24;14.80;99.90
70550;DHT22;58101;48.658;2.328;2022-10-16T06:13:54;14.70;99.90
70550;DHT22;58101;48.658;2.328;2022-10-16T06:16:22;14.70;99.90
70550;DHT22;58101;48.658;2.328;2022-10-16T06:18:50;14.70;99.90
70550;DHT22;58101;48.658;2.328;2022-10-16T06:21:21;14.80;99.90
70550;DHT22;58101;48.658;2.328;2022-10-16T06:23:47;14.70;99.90
70550;DHT22;58101;48.658;2.328;2022-10-16T06:26:17;14.70;99.90
70550;DHT22;58101;48.658;2.328;2022-10-16T06:28:42;14.60;99.90
70550;DHT22;58101;48.658;2.328;2022-10-16T06:31:09;14.80;99.90
70550;DHT22;58101;48.658;2.328;2022-10-16T06:33:36;14.60;99.90
70550;DHT22;58101;48.658;2.328;2022-10-16T06:36:20;14.60;99.90
70550;DHT22;58101;48.658;2.328;2022-10-16T06:38:46;14.60;99.90
70550;DHT22;58101;48.658;2.328;2022-10-16T06:41:14;14.60;99.90
70550;DHT22;58101;48.658;2.328;2022-10-16T06:43:40;14.60;99.90
70550;DHT22;58101;48.658;2.328;2022-10-16T06:46:07;14.60;99.90
70550;DHT22;58101;48.658;2.328;2022-10-16T06:48:34;14.70;99.90
70550;DHT22;58101;48.658;2.328;2022-10-16T06:51:11;14.70;99.90
70550;DHT22;58101;48.658;2.328;2022-10-16T06:53:40;14.70;99.90
70550;DHT22;58101;48.658;2.328;2022-10-16T06:56:13;14.70;99.90
70550;DHT22;58101;48.658;2.328;2022-10-16T06:58:39;14.80;99.90
70550;DHT22;58101;48.658;2.328;2022-10-16T07:01:05;14.90;99.90
70550;DHT22;58101;48.658;2.328;2022-10-16T07:03:32;14.90;99.90
70550;DHT22;58101;48.658;2.328;2022-10-16T07:06:02;15.10;99.90
70550;DHT22;58101;48.658;2.328;2022-10-16T07:08:31;15.10;99.90
70550;DHT22;58101;48.658;2.328;2022-10-16T07:10:59;15.10;99.90
70550;DHT22;58101;48.658;2.328;2022-10-16T07:13:25;15.20;99.90
70550;DHT22;58101;48.658;2.328;2022-10-16T07:15:51;15.40;99.90
70550;DHT22;58101;48.658;2.328;2022-10-16T07:18:16;15.50;99.90
70550;DHT22;58101;48.658;2.328;2022-10-16T07:20:42;15.60;99.90
70550;DHT22;58101;48.658;2.328;2022-10-16T07:23:07;15.50;99.90
70550;DHT22;58101;48.658;2.328;2022-10-16T07:25:33;15.50;99.90
70550;DHT22;58101;48.658;2.328;2022-10-16T07:27:58;15.50;99.90
70550;DHT22;58101;48.658;2.328;2022-10-16T07:30:24;15.40;99.90
70550;DHT22;58101;48.658;2.328;2022-10-16T07:32:49;15.40;99.90
70550;DHT22;58101;48.658;2.328;2022-10-16T07:35:15;15.40;99.90
70550;DHT22;58101;48.658;2.328;2022-10-16T07:37:45;15.40;99.90
70550;DHT22;58101;48.658;2.328;2022-10-16T07:40:11;15.40;99.90
70550;DHT22;58101;48.658;2.328;2022-10-16T07:42:36;15.40;99.90
70550;DHT22;58101;48.658;2.328;2022-10-16T07:45:02;15.40;99.90
70550;DHT22;58101;48.658;2.328;2022-10-16T07:47:28;15.40;99.90
70550;DHT22;58101;48.658;2.328;2022-10-16T07:49:54;15.40;99.90
70550;DHT22;58101;48.658;2.328;2022-10-16T07:52:19;15.40;99.90
70550;DHT22;58101;48.658;2.328;2022-10-16T07:54:45;15.40;99.90
70550;DHT22;58101;48.658;2.328;2022-10-16T07:57:10;15.40;99.90
70550;DHT22;58101;48.658;2.328;2022-10-16T07:59:36;15.60;99.90
70550;DHT22;58101;48.658;2.328;2022-10-16T08:02:02;15.60;99.90
70550;DHT22;58101;48.658;2.328;2022-10-16T08:04:27;15.70;99.90
70550;DHT22;58101;48.658;2.328;2022-10-16T08:06:53;15.90;99.90
70550;DHT22;58101;48.658;2.328;2022-10-16T08:09:19;16.40;99.90
70550;DHT22;58101;48.658;2.328;2022-10-16T08:11:45;16.80;99.90
70550;DHT22;58101;48.658;2.328;2022-10-16T08:14:11;17.20;99.90
70550;DHT22;58101;48.658;2.328;2022-10-16T08:16:36;17.30;99.90
70550;DHT22;58101;48.658;2.328;2022-10-16T08:19:02;17.60;99.90
70550;DHT22;58101;48.658;2.328;2022-10-16T08:21:28;18.00;99.90
70550;DHT22;58101;48.658;2.328;2022-10-16T08:23:54;18.10;99.90
70550;DHT22;58101;48.658;2.328;2022-10-16T08:26:20;18.00;99.90
70550;DHT22;58101;48.658;2.328;2022-10-16T08:28:49;17.90;99.90
70550;DHT22;58101;48.658;2.328;2022-10-16T08:31:16;17.80;99.90
70550;DHT22;58101;48.658;2.328;2022-10-16T08:33:43;17.80;99.90
70550;DHT22;58101;48.658;2.328;2022-10-16T08:36:11;17.80;99.90
70550;DHT22;58101;48.658;2.328;2022-10-16T08:38:38;17.80;99.90
70550;DHT22;58101;48.658;2.328;2022-10-16T08:41:46;17.70;99.90
70550;DHT22;58101;48.658;2.328;2022-10-16T08:44:22;17.60;99.90
70550;DHT22;58101;48.658;2.328;2022-10-16T08:47:13;18.00;99.90
70550;DHT22;58101;48.658;2.328;2022-10-16T08:49:41;18.70;99.90
70550;DHT22;58101;48.658;2.328;2022-10-16T08:52:12;19.00;97.00
70550;DHT22;58101;48.658;2.328;2022-10-16T08:54:43;19.10;95.30
70550;DHT22;58101;48.658;2.328;2022-10-16T08:57:14;19.40;96.20
70550;DHT22;58101;48.658;2.328;2022-10-16T08:59:41;20.30;95.50
70550;DHT22;58101;48.658;2.328;2022-10-16T09:02:35;20.80;90.60
70550;DHT22;58101;48.658;2.328;2022-10-16T09:08:22;22.30;87.30
70550;DHT22;58101;48.658;2.328;2022-10-16T09:13:28;23.80;77.90
70550;DHT22;58101;48.658;2.328;2022-10-16T09:21:18;24.80;67.80
70550;DHT22;58101;48.658;2.328;2022-10-16T09:23:44;24.40;64.60
70550;DHT22;58101;48.658;2.328;2022-10-16T09:26:13;23.80;67.10
70550;DHT22;58101;48.658;2.328;2022-10-16T09:28:39;23.70;70.40
70550;DHT22;58101;48.658;2.328;2022-10-16T09:31:07;24.30;69.00
70550;DHT22;58101;48.658;2.328;2022-10-16T09:33:39;24.30;68.10
70550;DHT22;58101;48.658;2.328;2022-10-16T09:36:06;23.60;68.30
70550;DHT22;58101;48.658;2.328;2022-10-16T09:38:32;23.70;70.00
70550;DHT22;58101;48.658;2.328;2022-10-16T09:41:00;23.90;68.20
70550;DHT22;58101;48.658;2.328;2022-10-16T09:43:40;24.50;68.20
70550;DHT22;58101;48.658;2.328;2022-10-16T09:48:49;26.60;60.40
70550;DHT22;58101;48.658;2.328;2022-10-16T09:51:29;26.90;58.40
70550;DHT22;58101;48.658;2.328;2022-10-16T09:53:59;26.80;57.70
70550;DHT22;58101;48.658;2.328;2022-10-16T09:56:29;26.50;56.80
70550;DHT22;58101;48.658;2.328;2022-10-16T09:58:57;25.90;58.30
70550;DHT22;58101;48.658;2.328;2022-10-16T10:01:38;25.80;60.60
70550;DHT22;58101;48.658;2.328;2022-10-16T10:04:05;26.00;58.40
70550;DHT22;58101;48.658;2.328;2022-10-16T10:06:37;25.90;59.00
70550;DHT22;58101;48.658;2.328;2022-10-16T10:11:44;26.40;57.50
70550;DHT22;58101;48.658;2.328;2022-10-16T10:14:37;26.40;57.80
70550;DHT22;58101;48.658;2.328;2022-10-16T10:19:51;25.50;58.80
70550;DHT22;58101;48.658;2.328;2022-10-16T10:22:28;24.70;62.70
70550;DHT22;58101;48.658;2.328;2022-10-16T10:30:20;21.90;73.40
70550;DHT22;58101;48.658;2.328;2022-10-16T10:38:52;20.50;81.70
70550;DHT22;58101;48.658;2.328;2022-10-16T10:58:03;19.60;90.10
70550;DHT22;58101;48.658;2.328;2022-10-16T11:06:32;19.80;91.30
70550;DHT22;58101;48.658;2.328;2022-10-16T11:12:24;20.10;90.40
70550;DHT22;58101;48.658;2.328;2022-10-16T11:17:48;20.30;88.60
70550;DHT22;58101;48.658;2.328;2022-10-16T11:22:56;20.00;90.50
70550;DHT22;58101;48.658;2.328;2022-10-16T11:25:25;19.90;91.20
70550;DHT22;58101;48.658;2.328;2022-10-16T11:30:23;19.90;91.50
70550;DHT22;58101;48.658;2.328;2022-10-16T11:35:53;19.90;91.40
70550;DHT22;58101;48.658;2.328;2022-10-16T11:38:26;19.90;90.60
70550;DHT22;58101;48.658;2.328;2022-10-16T11:40:58;19.90;91.30
70550;DHT22;58101;48.658;2.328;2022-10-16T11:43:49;19.80;91.90
70550;DHT22;58101;48.658;2.328;2022-10-16T11:46:20;19.80;91.80
70550;DHT22;58101;48.658;2.328;2022-10-16T11:48:51;19.80;91.60
70550;DHT22;58101;48.658;2.328;2022-10-16T11:51:33;19.70;92.00
70550;DHT22;58101;48.658;2.328;2022-10-16T11:54:10;19.80;91.90
70550;DHT22;58101;48.658;2.328;2022-10-16T11:56:40;19.90;92.00
70550;DHT22;58101;48.658;2.328;2022-10-16T12:02:00;19.80;92.50
70550;DHT22;58101;48.658;2.328;2022-10-16T12:04:43;19.80;93.30
70550;DHT22;58101;48.658;2.328;2022-10-16T12:07:12;19.70;93.10
70550;DHT22;58101;48.658;2.328;2022-10-16T12:09:40;19.70;93.30
70550;DHT22;58101;48.658;2.328;2022-10-16T12:12:37;19.70;94.00
70550;DHT22;58101;48.658;2.328;2022-10-16T12:15:25;19.90;93.50
70550;DHT22;58101;48.658;2.328;2022-10-16T12:17:51;20.30;93.00
70550;DHT22;58101;48.658;2.328;2022-10-16T12:23:00;20.90;91.20
70550;DHT22;58101;48.658;2.328;2022-10-16T12:25:35;21.10;90.50
70550;DHT22;58101;48.658;2.328;2022-10-16T12:28:20;21.20;90.00
70550;DHT22;58101;48.658;2.328;2022-10-16T12:30:58;21.10;89.40
70550;DHT22;58101;48.658;2.328;2022-10-16T12:33:33;20.80;90.40
70550;DHT22;58101;48.658;2.328;2022-10-16T12:36:02;20.60;90.90
70550;DHT22;58101;48.658;2.328;2022-10-16T12:38:36;20.30;92.50
70550;DHT22;58101;48.658;2.328;2022-10-16T12:41:08;20.20;93.00
70550;DHT22;58101;48.658;2.328;2022-10-16T12:43:45;20.30;92.80
70550;DHT22;58101;48.658;2.328;2022-10-16T12:48:38;20.50;92.90
70550;DHT22;58101;48.658;2.328;2022-10-16T12:51:23;20.40;92.40
70550;DHT22;58101;48.658;2.328;2022-10-16T12:54:10;20.40;92.20
70550;DHT22;58101;48.658;2.328;2022-10-16T13:20:12;22.20;87.70
70550;DHT22;58101;48.658;2.328;2022-10-16T13:28:32;22.10;87.70
70550;DHT22;58101;48.658;2.328;2022-10-16T13:30:59;22.10;88.30
70550;DHT22;58101;48.658;2.328;2022-10-16T13:33:36;21.90;88.40
70550;DHT22;58101;48.658;2.328;2022-10-16T13:36:03;21.70;90.20
70550;DHT22;58101;48.658;2.328;2022-10-16T13:38:35;21.60;90.90
70550;DHT22;58101;48.658;2.328;2022-10-16T13:41:05;21.60;90.50
70550;DHT22;58101;48.658;2.328;2022-10-16T13:43:41;21.50;90.80
70550;DHT22;58101;48.658;2.328;2022-10-16T13:46:13;21.60;90.90
70550;DHT22;58101;48.658;2.328;2022-10-16T13:48:39;21.60;91.30
70550;DHT22;58101;48.658;2.328;2022-10-16T13:51:06;21.60;90.80
70550;DHT22;58101;48.658;2.328;2022-10-16T13:53:36;21.50;91.10
70550;DHT22;58101;48.658;2.328;2022-10-16T13:56:04;21.50;91.40
70550;DHT22;58101;48.658;2.328;2022-10-16T13:58:31;21.50;91.50
70550;DHT22;58101;48.658;2.328;2022-10-16T14:00:59;21.50;91.20
70550;DHT22;58101;48.658;2.328;2022-10-16T14:03:26;21.40;91.10
70550;DHT22;58101;48.658;2.328;2022-10-16T14:05:55;21.30;91.10
70550;DHT22;58101;48.658;2.328;2022-10-16T14:08:23;21.30;91.50
70550;DHT22;58101;48.658;2.328;2022-10-16T14:10:51;21.30;91.60
70550;DHT22;58101;48.658;2.328;2022-10-16T14:13:22;21.40;91.70
70550;DHT22;58101;48.658;2.328;2022-10-16T14:15:51;21.40;91.70
70550;DHT22;58101;48.658;2.328;2022-10-16T14:18:22;21.40;91.70
70550;DHT22;58101;48.658;2.328;2022-10-16T14:20:49;21.40;91.90
70550;DHT22;58101;48.658;2.328;2022-10-16T14:23:19;21.50;92.30
70550;DHT22;58101;48.658;2.328;2022-10-16T14:25:45;21.40;92.70
70550;DHT22;58101;48.658;2.328;2022-10-16T14:30:53;21.50;92.10
70550;DHT22;58101;48.658;2.328;2022-10-16T14:36:04;21.20;92.30
70550;DHT22;58101;48.658;2.328;2022-10-16T14:38:31;21.30;92.50
70550;DHT22;58101;48.658;2.328;2022-10-16T14:40:58;21.30;92.70
70550;DHT22;58101;48.658;2.328;2022-10-16T14:43:34;21.30;92.90
70550;DHT22;58101;48.658;2.328;2022-10-16T14:46:03;21.30;92.80
70550;DHT22;58101;48.658;2.328;2022-10-16T14:48:30;21.30;93.40
70550;DHT22;58101;48.658;2.328;2022-10-16T14:50:56;21.30;93.10
70550;DHT22;58101;48.658;2.328;2022-10-16T14:53:22;21.20;93.20
70550;DHT22;58101;48.658;2.328;2022-10-16T14:55:48;21.10;94.00
70550;DHT22;58101;48.658;2.328;2022-10-16T14:58:20;21.00;94.00
70550;DHT22;58101;48.658;2.328;2022-10-16T15:00:46;21.00;94.60
70550;DHT22;58101;48.658;2.328;2022-10-16T15:03:12;21.00;94.80
70550;DHT22;58101;48.658;2.328;2022-10-16T15:05:38;21.00;94.80
70550;DHT22;58101;48.658;2.328;2022-10-16T15:08:04;21.00;94.90
70550;DHT22;58101;48.658;2.328;2022-10-16T15:10:38;21.00;94.80
70550;DHT22;58101;48.658;2.328;2022-10-16T15:13:04;21.00;94.90
70550;DHT22;58101;48.658;2.328;2022-10-16T15:15:38;21.10;95.00
70550;DHT22;58101;48.658;2.328;2022-10-16T15:18:05;21.10;94.90
70550;DHT22;58101;48.658;2.328;2022-10-16T15:20:33;21.20;94.80
70550;DHT22;58101;48.658;2.328;2022-10-16T15:23:05;21.20;95.00
70550;DHT22;58101;48.658;2.328;2022-10-16T15:25:37;21.10;94.90
70550;DHT22;58101;48.658;2.328;2022-10-16T15:28:05;21.10;95.00
70550;DHT22;58101;48.658;2.328;2022-10-16T15:30:32;21.00;94.90
70550;DHT22;58101;48.658;2.328;2022-10-16T15:32:58;21.00;95.00
70550;DHT22;58101;48.658;2.328;2022-10-16T15:35:24;21.00;95.10
70550;DHT22;58101;48.658;2.328;2022-10-16T15:37:50;21.00;95.10
70550;DHT22;58101;48.658;2.328;2022-10-16T15:40:17;21.00;95.50
70550;DHT22;58101;48.658;2.328;2022-10-16T15:42:43;20.90;95.60
70550;DHT22;58101;48.658;2.328;2022-10-16T15:45:10;20.90;95.80
70550;DHT22;58101;48.658;2.328;2022-10-16T15:47:36;20.90;95.80
70550;DHT22;58101;48.658;2.328;2022-10-16T15:50:02;20.90;95.90
70550;DHT22;58101;48.658;2.328;2022-10-16T15:52:28;20.90;96.20
70550;DHT22;58101;48.658;2.328;2022-10-16T15:54:54;20.90;96.80
70550;DHT22;58101;48.658;2.328;2022-10-16T15:57:20;20.90;96.70
70550;DHT22;58101;48.658;2.328;2022-10-16T15:59:46;20.80;96.70
70550;DHT22;58101;48.658;2.328;2022-10-16T16:02:11;20.80;96.80
70550;DHT22;58101;48.658;2.328;2022-10-16T16:04:37;20.80;97.10
70550;DHT22;58101;48.658;2.328;2022-10-16T16:07:02;20.70;97.50
70550;DHT22;58101;48.658;2.328;2022-10-16T16:09:31;20.70;97.60
70550;DHT22;58101;48.658;2.328;2022-10-16T16:11:57;20.70;97.50
70550;DHT22;58101;48.658;2.328;2022-10-16T16:14:26;20.70;97.70
70550;DHT22;58101;48.658;2.328;2022-10-16T16:16:54;20.60;97.80
70550;DHT22;58101;48.658;2.328;2022-10-16T16:19:19;20.60;98.20
70550;DHT22;58101;48.658;2.328;2022-10-16T16:21:47;20.60;98.20
70550;DHT22;58101;48.658;2.328;2022-10-16T16:24:12;20.60;98.30
70550;DHT22;58101;48.658;2.328;2022-10-16T16:26:38;20.60;98.40
70550;DHT22;58101;48.658;2.328;2022-10-16T16:29:05;20.60;98.50
70550;DHT22;58101;48.658;2.328;2022-10-16T16:31:32;20.50;98.60
70550;DHT22;58101;48.658;2.328;2022-10-16T16:33:58;20.50;98.70
70550;DHT22;58101;48.658;2.328;2022-10-16T16:36:25;20.40;99.20
70550;DHT22;58101;48.658;2.328;2022-10-16T16:38:50;20.40;99.40
70550;DHT22;58101;48.658;2.328;2022-10-16T16:41:18;20.40;99.90
70550;DHT22;58101;48.658;2.328;2022-10-16T16:43:44;20.30;99.90
70550;DHT22;58101;48.658;2.328;2022-10-16T16:46:10;20.20;99.90
70550;DHT22;58101;48.658;2.328;2022-10-16T16:48:37;20.10;99.90
70550;DHT22;58101;48.658;2.328;2022-10-16T16:51:07;20.00;99.90
70550;DHT22;58101;48.658;2.328;2022-10-16T16:53:35;19.90;99.90
70550;DHT22;58101;48.658;2.328;2022-10-16T16:56:05;19.90;99.90
70550;DHT22;58101;48.658;2.328;2022-10-16T16:58:31;19.80;99.90
70550;DHT22;58101;48.658;2.328;2022-10-16T17:00:57;19.70;99.90
70550;DHT22;58101;48.658;2.328;2022-10-16T17:03:30;19.60;99.90
70550;DHT22;58101;48.658;2.328;2022-10-16T17:08:25;19.50;99.90
70550;DHT22;58101;48.658;2.328;2022-10-16T17:10:51;19.40;99.90
70550;DHT22;58101;48.658;2.328;2022-10-16T17:13:23;19.30;99.90
70550;DHT22;58101;48.658;2.328;2022-10-16T17:15:50;19.30;99.90
70550;DHT22;58101;48.658;2.328;2022-10-16T17:18:16;19.20;99.90
70550;DHT22;58101;48.658;2.328;2022-10-16T17:20:42;19.10;99.90
70550;DHT22;58101;48.658;2.328;2022-10-16T17:23:08;19.00;99.90
70550;DHT22;58101;48.658;2.328;2022-10-16T17:25:37;18.90;99.90
70550;DHT22;58101;48.658;2.328;2022-10-16T17:28:03;18.80;99.90
70550;DHT22;58101;48.658;2.328;2022-10-16T17:30:29;18.80;99.90
70550;DHT22;58101;48.658;2.328;2022-10-16T17:32:54;18.70;99.90
70550;DHT22;58101;48.658;2.328;2022-10-16T17:35:20;18.70;99.90
70550;DHT22;58101;48.658;2.328;2022-10-16T17:37:46;18.70;99.90
70550;DHT22;58101;48.658;2.328;2022-10-16T17:40:11;18.60;99.90
70550;DHT22;58101;48.658;2.328;2022-10-16T17:42:37;18.60;99.90
70550;DHT22;58101;48.658;2.328;2022-10-16T17:45:03;18.60;99.90
70550;DHT22;58101;48.658;2.328;2022-10-16T17:47:29;18.60;99.90
70550;DHT22;58101;48.658;2.328;2022-10-16T17:49:54;18.60;99.90
70550;DHT22;58101;48.658;2.328;2022-10-16T17:52:21;18.60;99.90